createdAt,value
2023-05-20T00:04:25.493Z,92.22
2023-05-20T00:09:27.184Z,92.55
2023-05-20T00:14:28.826Z,91.92
2023-05-20T00:19:30.967Z,91.24
2023-05-20T00:24:32.689Z,92.21
2023-05-20T00:29:34.769Z,93.63
2023-05-20T00:34:36.444Z,93.59
2023-05-20T00:39:38.153Z,94.12
2023-05-20T00:44:39.810Z,95.15
2023-05-20T00:49:41.678Z,95.18
2023-05-20T00:54:43.564Z,94.24
2023-05-20T00:59:45.593Z,95.13
2023-05-20T01:04:47.476Z,96.47
2023-05-20T01:09:49.388Z,97.27
2023-05-20T01:15:07.408Z,98.96
2023-05-20T01:20:10.514Z,100.00
2023-05-20T01:25:12.231Z,100.00
2023-05-20T01:30:14.245Z,100.00
2023-05-20T01:35:17.256Z,100.00
2023-05-20T01:40:19.596Z,100.00
2023-05-20T01:45:21.535Z,100.00
2023-05-20T01:50:23.268Z,100.00
2023-05-20T01:55:25.038Z,100.00
2023-05-20T02:00:26.937Z,100.00
2023-05-20T02:05:28.664Z,100.00
2023-05-20T02:10:30.492Z,100.00
2023-05-20T02:15:32.380Z,100.00
2023-05-20T02:20:37.395Z,100.00
2023-05-20T02:25:39.058Z,100.00
2023-05-20T02:30:40.754Z,100.00
2023-05-20T02:35:42.430Z,100.00
2023-05-20T02:40:45.142Z,100.00
2023-05-20T02:45:47.378Z,100.00
2023-05-20T02:50:49.186Z,100.00
2023-05-20T02:55:50.921Z,100.00
2023-05-20T03:00:53.151Z,100.00
2023-05-20T03:05:55.477Z,100.00
2023-05-20T03:10:58.821Z,100.00
2023-05-20T03:16:01.606Z,100.00
2023-05-20T03:21:04.227Z,100.00
2023-05-20T03:26:06.914Z,100.00
2023-05-20T03:31:08.992Z,100.00
2023-05-20T03:36:10.969Z,100.00
2023-05-20T03:41:12.884Z,100.00
2023-05-20T03:46:14.894Z,100.00
2023-05-20T03:51:16.844Z,100.00
2023-05-20T03:56:21.093Z,100.00
2023-05-20T04:01:25.728Z,100.00
2023-05-20T04:06:27.737Z,100.00
2023-05-20T04:11:31.119Z,100.00
2023-05-20T04:16:32.818Z,100.00
2023-05-20T04:21:34.706Z,100.00
2023-05-20T04:26:36.605Z,100.00
2023-05-20T04:31:38.677Z,99.46
2023-05-20T04:36:40.800Z,98.24
2023-05-20T04:41:42.954Z,98.24
2023-05-20T04:46:46.176Z,98.30
2023-05-20T04:51:50.131Z,97.89
2023-05-20T04:56:53.578Z,98.86
2023-05-20T05:01:55.240Z,99.46
2023-05-20T05:06:58.148Z,99.51
2023-05-20T05:11:59.818Z,100.00
2023-05-20T05:17:01.539Z,99.49
2023-05-20T05:22:03.889Z,99.79
2023-05-20T05:27:06.099Z,99.57
2023-05-20T05:32:08.120Z,99.33
2023-05-20T05:37:10.015Z,100.00
2023-05-20T05:42:12.230Z,100.00
2023-05-20T05:47:14.915Z,100.00
2023-05-20T05:52:16.936Z,100.00
2023-05-20T05:57:18.670Z,99.10
2023-05-20T06:02:22.271Z,96.62
2023-05-20T06:07:24.164Z,93.63
2023-05-20T06:12:26.891Z,92.20
2023-05-20T06:17:28.676Z,92.30
2023-05-20T06:22:30.557Z,90.90
2023-05-20T06:27:32.512Z,91.92
2023-05-20T06:32:34.274Z,94.56
2023-05-20T06:37:36.122Z,91.01
2023-05-20T06:42:37.967Z,92.49
2023-05-20T06:47:40.889Z,93.27
2023-05-20T06:52:43.588Z,92.79
2023-05-20T06:57:46.402Z,92.91
2023-05-20T07:02:49.434Z,91.31
2023-05-20T07:07:51.674Z,90.88
2023-05-20T07:12:53.485Z,89.91
2023-05-20T07:17:55.574Z,90.02
2023-05-20T07:22:57.384Z,86.19
2023-05-20T07:28:06.812Z,85.41
2023-05-20T07:33:08.595Z,82.78
2023-05-20T07:38:12.524Z,82.93
2023-05-20T07:43:14.782Z,83.79
2023-05-20T07:48:16.850Z,79.85
2023-05-20T07:53:18.826Z,77.91
2023-05-20T07:58:20.808Z,76.27
2023-05-20T08:03:23.482Z,70.98
2023-05-20T08:08:36.618Z,57.59
2023-05-20T08:13:44.188Z,50.25
2023-05-20T08:18:46.824Z,61.67
2023-05-20T08:23:48.553Z,57.92
2023-05-20T08:28:50.546Z,54.44
2023-05-20T08:33:53.440Z,65.25
2023-05-20T08:38:55.965Z,73.09
2023-05-20T08:44:00.856Z,75.28
2023-05-20T08:49:03.507Z,73.47
2023-05-20T08:54:05.355Z,71.67
2023-05-20T08:59:07.372Z,69.71
2023-05-20T09:04:09.878Z,70.59
2023-05-20T09:09:15.716Z,66.93
2023-05-20T09:14:17.433Z,64.21
2023-05-20T09:19:24.334Z,66.22
2023-05-20T09:24:27.238Z,66.73
2023-05-20T09:29:33.336Z,59.13
2023-05-20T09:34:35.356Z,54.59
2023-05-20T09:39:48.491Z,54.52
2023-05-20T09:44:51.856Z,59.74
2023-05-20T09:49:53.995Z,63.09
2023-05-20T09:54:57.564Z,65.58
2023-05-20T09:59:59.253Z,57.88
2023-05-20T10:05:10.966Z,58.64
2023-05-20T10:10:33.134Z,58.42
2023-05-20T10:16:08.627Z,58.96
2023-05-20T10:21:19.032Z,56.29
2023-05-20T10:26:22.523Z,54.41
2023-05-20T10:31:25.761Z,54.77
2023-05-20T10:36:29.199Z,54.19
2023-05-20T10:41:30.907Z,56.77
2023-05-20T10:46:48.176Z,56.11
2023-05-20T10:51:55.995Z,52.92
2023-05-20T10:56:58.000Z,57.31
2023-05-20T11:02:02.367Z,52.78
2023-05-20T11:07:04.356Z,53.60
2023-05-20T11:12:06.490Z,60.55
2023-05-20T11:17:08.321Z,56.14
2023-05-20T11:22:10.423Z,57.38
2023-05-20T11:27:12.171Z,57.10
2023-05-20T11:32:13.980Z,58.00
2023-05-20T11:37:16.147Z,57.74
2023-05-20T11:42:17.782Z,57.12
2023-05-20T11:47:27.593Z,58.44
2023-05-20T11:52:29.748Z,56.64
2023-05-20T11:57:31.788Z,57.58
2023-05-20T12:02:33.540Z,59.80
2023-05-20T12:07:36.772Z,65.22
2023-05-20T12:12:38.490Z,66.01
2023-05-20T12:17:48.850Z,65.06
2023-05-20T12:22:50.931Z,67.08
2023-05-20T12:27:52.627Z,68.79
2023-05-20T12:32:54.383Z,64.03
2023-05-20T12:37:56.534Z,59.52
2023-05-20T12:42:59.088Z,59.36
2023-05-20T12:48:00.985Z,61.23
2023-05-20T12:53:02.719Z,65.77
2023-05-20T12:58:04.392Z,64.11
2023-05-20T13:03:06.879Z,60.69
2023-05-20T13:08:10.276Z,64.27
2023-05-20T13:13:13.913Z,63.01
2023-05-20T13:18:16.675Z,65.99
2023-05-20T13:23:18.362Z,64.40
2023-05-20T13:28:20.936Z,66.14
2023-05-20T13:33:24.179Z,65.24
2023-05-20T13:38:25.929Z,65.21
2023-05-20T13:43:28.653Z,66.49
2023-05-20T13:48:30.412Z,67.32
2023-05-20T13:53:32.072Z,67.90
2023-05-20T13:58:33.725Z,66.71
2023-05-20T14:03:37.426Z,66.50
2023-05-20T14:08:39.193Z,68.20
2023-05-20T14:13:41.214Z,68.42
2023-05-20T14:18:42.919Z,69.63
2023-05-20T14:23:45.227Z,69.37
2023-05-20T14:28:47.085Z,69.12
2023-05-20T14:33:49.369Z,68.29
2023-05-20T14:38:51.159Z,67.91
2023-05-20T14:43:52.833Z,68.39
2023-05-20T14:48:54.537Z,67.73
2023-05-20T14:53:56.173Z,68.42
2023-05-20T14:58:57.867Z,68.61
2023-05-20T15:03:59.955Z,69.31
2023-05-20T15:09:02.405Z,68.89
2023-05-20T15:14:04.118Z,68.39
2023-05-20T15:19:05.879Z,67.86
2023-05-20T15:24:07.557Z,66.04
2023-05-20T15:29:09.255Z,68.03
2023-05-20T15:34:11.012Z,68.76
2023-05-20T15:39:13.106Z,69.24
2023-05-20T15:44:14.774Z,69.52
2023-05-20T15:49:16.710Z,69.23
2023-05-20T15:54:20.099Z,69.05
2023-05-20T15:59:22.014Z,69.58
2023-05-20T16:04:24.062Z,70.34
2023-05-20T16:09:25.819Z,70.13
2023-05-20T16:14:27.473Z,69.15
2023-05-20T16:19:29.299Z,68.14
2023-05-20T16:24:31.254Z,66.51
2023-05-20T16:29:33.232Z,68.71
2023-05-20T16:34:34.890Z,70.57
2023-05-20T16:39:36.598Z,70.94
2023-05-20T16:44:39.269Z,71.99
2023-05-20T16:49:40.911Z,71.49
2023-05-20T16:54:42.608Z,71.99
2023-05-20T16:59:44.937Z,73.13
2023-05-20T17:04:46.824Z,73.00
2023-05-20T17:09:48.519Z,72.62
2023-05-20T17:14:50.170Z,72.44
2023-05-20T17:19:51.839Z,72.43
2023-05-20T17:24:53.499Z,73.24
2023-05-20T17:29:55.278Z,74.06
2023-05-20T17:34:57.013Z,74.34
2023-05-20T17:39:58.689Z,75.39
2023-05-20T17:45:00.491Z,75.57
2023-05-20T17:50:02.846Z,75.98
2023-05-20T17:55:05.000Z,76.53
2023-05-20T18:00:10.224Z,77.24
2023-05-20T18:05:12.913Z,77.26
2023-05-20T18:10:14.578Z,77.63
2023-05-20T18:15:18.379Z,77.96
2023-05-20T18:20:20.132Z,78.57
2023-05-20T18:25:21.773Z,79.62
2023-05-20T18:30:23.550Z,80.00
2023-05-20T18:35:25.211Z,80.63
2023-05-20T18:40:28.213Z,81.76
2023-05-20T18:45:30.019Z,82.08
2023-05-20T18:50:31.993Z,82.58
2023-05-20T18:55:33.742Z,82.89
2023-05-20T19:00:35.611Z,83.24
2023-05-20T19:05:37.811Z,83.90
2023-05-20T19:10:39.751Z,84.62
2023-05-20T19:15:41.458Z,84.58
2023-05-20T19:20:43.133Z,85.21
2023-05-20T19:25:45.043Z,85.27
2023-05-20T19:30:47.213Z,85.87
2023-05-20T19:35:48.992Z,86.26
2023-05-20T19:40:50.658Z,88.42
2023-05-20T19:45:52.347Z,90.03
2023-05-20T19:50:54.015Z,90.48
2023-05-20T19:55:55.671Z,91.49
2023-05-20T20:00:57.356Z,91.14
2023-05-20T20:05:59.082Z,92.58
2023-05-20T20:11:00.826Z,94.92
2023-05-20T20:16:02.965Z,96.16
2023-05-20T20:21:05.697Z,97.26
2023-05-20T20:26:07.938Z,98.80
2023-05-20T20:31:09.689Z,100.00
2023-05-20T20:36:11.367Z,100.00
2023-05-20T20:41:16.146Z,100.00
2023-05-20T20:46:17.955Z,100.00
2023-05-20T20:51:19.887Z,100.00
2023-05-20T20:56:21.548Z,100.00
2023-05-20T21:01:23.578Z,100.00
2023-05-20T21:06:25.311Z,100.00
2023-05-20T21:11:28.059Z,100.00
2023-05-20T21:16:29.772Z,100.00
2023-05-20T21:21:31.847Z,100.00
2023-05-20T21:26:33.663Z,100.00
2023-05-20T21:31:35.413Z,100.00
2023-05-20T21:36:37.149Z,100.00
2023-05-20T21:41:38.795Z,100.00
2023-05-20T21:46:40.493Z,100.00
2023-05-20T21:51:42.243Z,100.00
2023-05-20T21:56:43.935Z,100.00
2023-05-20T22:01:45.743Z,100.00
2023-05-20T22:06:47.665Z,100.00
2023-05-20T22:11:49.792Z,100.00
2023-05-20T22:16:51.516Z,100.00
2023-05-20T22:21:53.210Z,100.00
2023-05-20T22:26:54.853Z,100.00
2023-05-20T22:31:56.611Z,100.00
2023-05-20T22:36:58.363Z,100.00
2023-05-20T22:42:00.036Z,100.00
2023-05-20T22:47:01.705Z,100.00
2023-05-20T22:52:03.530Z,100.00
2023-05-20T22:57:05.465Z,100.00
2023-05-20T23:02:07.847Z,100.00
2023-05-20T23:07:09.597Z,100.00
2023-05-20T23:12:11.308Z,100.00
2023-05-20T23:17:12.996Z,100.00
2023-05-20T23:22:15.014Z,100.00
2023-05-20T23:27:16.686Z,100.00
2023-05-20T23:32:18.346Z,100.00
2023-05-20T23:37:20.238Z,100.00
2023-05-20T23:42:21.889Z,100.00
2023-05-20T23:47:26.085Z,100.00
2023-05-20T23:52:28.323Z,100.00
2023-05-20T23:57:29.976Z,100.00
